Home > Products > Valid Products > TAF

000
FTUS44 KJAN 161100 RRA
TAFGWO
TAF
KGWO 161151Z 1612/1712 01003KT P6SM VCSH BKN100 OVC250
     FM162000 02005KT P6SM SCT060 BKN150
     FM170000 03003KT P6SM SCT250
     FM170900 00000KT 6SM BR SKC=



000
FTUS44 KJAN 161100 RRA
TAFGLH
TAF
KGLH 161151Z 1612/1712 36005KT P6SM VCSH BKN100 OVC200
     FM162000 35007KT P6SM SCT060 BKN150
     FM170000 36004KT P6SM SCT250
     FM170900 00000KT 6SM BR SKC=



000
FTUS44 KJAN 161100 RRA
TAFJAN
TAF
KJAN 161151Z 1612/1712 01004KT P6SM FEW035 BKN200
     FM161900 01006KT P6SM VCSH SCT050 BKN150
     FM170000 03003KT P6SM SCT250=



000
FTUS44 KJAN 161100 RRA
TAFHBG
TAF
KHBG 161151Z 1612/1712 00000KT P6SM SCT250
     FM161400 35003KT P6SM SCT050 BKN200
     FM162000 36006KT P6SM VCTS BKN040CB BKN150
     FM170100 36003KT P6SM SCT100 BKN250
     FM171000 00000KT 4SM BR SCT250=



000
FTUS44 KJAN 161100 RRA
TAFMEI
TAF
KMEI 161151Z 1612/1712 00000KT P6SM SCT250
     FM161400 36003KT P6SM SCT050 BKN200
     FM162000 01006KT P6SM VCTS BKN050CB BKN150
     FM170100 01003KT P6SM FEW100 BKN250
     FM170900 00000KT 4SM BR SCT250=



000
FTUS44 KJAN 161000 AAA
TAFGWO
TAF AMD
KGWO 161051Z 1611/1706 36003KT P6SM -RA BKN100 OVC250
     FM161500 01006KT P6SM VCSH SCT060 OVC120
     FM170000 01003KT P6SM SCT250=



000
FTUS44 KJAN 161000 AAA
TAFGLH
TAF AMD
KGLH 161050Z 1611/1706 36003KT P6SM -RA BKN100 OVC250
     FM161300 36007KT P6SM VCSH SCT060 OVC120
     FM170000 36004KT P6SM SCT250=



000
FTUS44 KJAN 160900 AAA
TAFJAN
TAF AMD
KJAN 160949Z 1610/1706 00000KT P6SM FEW035 BKN200
     FM161400 01004KT P6SM SCT050 BKN150
     FM161900 36006KT P6SM VCTS BKN050CB BKN170
     FM170000 01003KT P6SM BKN250=



000
FTUS44 KJAN 160500
TAFHBG
TAF
KHBG 160520Z 1606/1706 VRB03KT P6SM FEW030 BKN200
     FM161430 36003KT P6SM SCT050 BKN170
     FM161900 35006KT P6SM VCTS BKN040CB BKN150
     FM170100 36003KT P6SM SCT100 OVC250=



000
FTUS44 KJAN 160500
TAFMEI
TAF
KMEI 160520Z 1606/1706 00000KT P6SM BKN200
     FM161400 01003KT P6SM SCT050 BKN150
     FM161900 36006KT P6SM VCTS BKN050CB BKN170
     FM170000 01003KT P6SM OVC250=



000
FTUS44 KJAN 160500
TAFGLH
TAF
KGLH 160520Z 1606/1706 36003KT P6SM SCT100 OVC250
     FM161500 36007KT P6SM VCSH SCT060 OVC120
     FM170000 36004KT P6SM SCT250=



000
FTUS44 KJAN 160500
TAFGWO
TAF
KGWO 160520Z 1606/1706 36003KT P6SM VCSH BKN100 OVC250
     FM161500 01006KT P6SM VCSH SCT060 OVC120
     FM170000 01003KT P6SM SCT250=



000
FTUS44 KJAN 160500
TAFJAN
TAF
KJAN 160520Z 1606/1706 00000KT P6SM BKN200
     FM161400 01004KT P6SM SCT050 BKN150
     FM161900 36006KT P6SM VCTS BKN050CB BKN170
     FM170000 01003KT P6SM BKN250=



000
FTUS44 KJAN 152300
TAFHBG
TAF
KHBG 152340Z 1600/1624 15005KT P6SM VCTS SCT040 BKN060CB BKN150
     FM160200 VRB03KT P6SM FEW050 SCT100 BKN200
     FM161000 VRB03KT 2SM BR FEW009 SCT050 BKN200
     FM161400 35004KT P6SM SCT030 BKN120 OVC200
     FM161800 VRB06KT 6SM -TSRA SCT030 BKN050CB OVC100=



000
FTUS44 KJAN 152300
TAFMEI
TAF
KMEI 152340Z 1600/1624 02004KT P6SM FEW050 SCT100 BKN200
     FM160900 VRB03KT 5SM BR FEW020 SCT050 BKN200
     FM161400 36004KT P6SM SCT050 BKN120 OVC200
     FM161700 35006KT P6SM VCTS SCT040 BKN060CB BKN150=



000
FTUS44 KJAN 152300
TAFGLH
TAF
KGLH 152340Z 1600/1624 35005KT P6SM FEW050 SCT080 BKN120=



000
FTUS44 KJAN 152300
TAFGWO
TAF
KGWO 152340Z 1600/1624 36005KT P6SM FEW050 SCT080 BKN120=



000
FTUS44 KJAN 152300
TAFJAN
TAF
KJAN 152340Z 1600/1624 36005KT P6SM FEW060 SCT100 BKN200
     FM161100 VRB03KT 6SM BR VCSH SCT050 BKN120 OVC200
     FM161600 35005KT P6SM VCTS SCT040 BKN060CB BKN150=



000
FTUS44 KJAN 151700
TAFJAN
TAF
KJAN 151725Z 1518/1618 03004KT P6SM SCT040
     FM152000 03006KT P6SM VCTS BKN040CB
     FM160000 05003KT P6SM BKN250=



000
FTUS44 KJAN 151700
TAFMEI
TAF
KMEI 151725Z 1518/1618 02004KT P6SM SCT040
     FM152000 04006KT P6SM VCTS BKN040CB
     FM160000 04003KT P6SM BKN250
     FM161000 00000KT 4SM BR BKN250
     FM161300 01005KT P6SM BKN250=



000
FTUS44 KJAN 151700
TAFHBG
TAF
KHBG 151725Z 1518/1618 02004KT P6SM SCT040
     FM151900 04006KT P6SM VCTS BKN030CB
     FM160100 05003KT P6SM BKN250
     FM161100 00000KT 4SM BR BKN250
     FM161300 01005KT P6SM BKN250=



000
FTUS44 KJAN 151700
TAFGWO
TAF
KGWO 151725Z 1518/1618 03006KT P6SM SCT040
     FM160000 03003KT P6SM SCT250=



000
FTUS44 KJAN 151700
TAFGLH
TAF
KGLH 151725Z 1518/1618 36007KT P6SM SCT040
     FM160000 36003KT P6SM SCT250=



000
FTUS44 KJAN 151100
TAFGLH
TAF
KGLH 151121Z 1512/1612 36003KT P6SM SCT250
     FM151330 36007KT P6SM SCT040 SCT250
     FM160000 36003KT P6SM SCT250
     FM161000 00000KT 6SM BR BKN250=



000
FTUS44 KJAN 151100
TAFJAN
TAF
KJAN 151121Z 1512/1612 00000KT P6SM SKC
     FM151400 03004KT P6SM SCT040 SCT250
     FM152000 03006KT P6SM VCTS BKN040CB BKN250
     FM160000 05003KT P6SM FEW100 BKN200
     FM161000 00000KT 6SM BR BKN250=



000
FTUS44 KJAN 151100
TAFGWO
TAF
KGWO 151121Z 1512/1612 04003KT P6SM SCT250
     FM151430 02005KT P6SM SCT040 BKN250
     FM160000 03003KT P6SM SCT250
     FM160900 00000KT 6SM BR BKN250=



000
FTUS44 KJAN 151100
TAFMEI
TAF
KMEI 151121Z 1512/1612 35003KT P6SM SKC
     FM151400 02004KT P6SM SCT040 SCT250
     FM152000 04006KT P6SM VCTS BKN040CB BKN250
     FM160000 04003KT P6SM SCT100 BKN250
     FM161000 00000KT 4SM BR BKN250=



000
FTUS44 KJAN 151100
TAFHBG
TAF
KHBG 151121Z 1512/1612 00000KT P6SM SKC
     FM151330 02004KT P6SM SCT040
     FM151900 04006KT P6SM VCTS BKN030CB BKN250
     FM160100 05003KT P6SM SCT100 BKN250
     FM161100 00000KT 4SM BR BKN250=



000
FTUS44 KJAN 151000 AAB
TAFHBG
TAF AMD
KHBG 151011Z 1510/1606 00000KT P6SM SKC
     FM151100 00000KT 5SM BR SKC
     FM151400 05003KT P6SM SCT030 SCT250
     FM151900 02006KT P6SM VCTS SCT030 BKN050CB OVC100
     FM160100 04003KT P6SM SCT040 BKN150=



000
FTUS44 KJAN 151000 AAA
TAFHBG
TAF AMD
KHBG 151008Z 1510/1606 00000KT 5SM BR SKC
     FM151400 05003KT P6SM SCT030 SCT250
     FM151900 02006KT P6SM VCTS SCT030 BKN050CB OVC100
     FM160100 04003KT P6SM SCT040 BKN150=



000
FTUS44 KJAN 150500
TAFGWO
TAF
KGWO 150530Z 1506/1606 00000KT P6SM SCT250
     FM150900 00000KT 6SM BR SCT030 BKN250
     FM151330 02005KT P6SM SCT040 BKN250
     FM160000 02003KT P6SM BKN250=



000
FTUS44 KJAN 150500
TAFJAN
TAF
KJAN 150530Z 1506/1606 00000KT P6SM FEW250
     FM151000 00000KT 6SM BR FEW030 SCT250
     FM151330 04003KT P6SM SCT030 BKN250
     FM152000 01006KT P6SM VCTS BKN030CB BKN050
     FM160000 04003KT P6SM SCT040 BKN250=



000
FTUS44 KJAN 150500
TAFMEI
TAF
KMEI 150530Z 1506/1606 35004KT P6SM FEW250
     FM150900 00000KT 5SM BR FEW030 SCT250
     FM151400 04003KT P6SM SCT030 BKN250
     FM151900 02007KT P6SM VCTS SCT030CB BKN050
     FM160000 04003KT P6SM SCT040 BKN250=



000
FTUS44 KJAN 150500
TAFGLH
TAF
KGLH 150530Z 1506/1606 02005KT P6SM SCT250
     FM151400 01007KT P6SM SCT040 BKN250
     FM160000 36004KT P6SM BKN250=



000
FTUS44 KJAN 150500
TAFHBG
TAF
KHBG 150530Z 1506/1606 34003KT P6SM SKC
     FM151000 00000KT 3SM BR BKN009
     FM151400 05003KT P6SM SCT030 BKN200
     FM151900 02006KT P6SM VCTS SCT030 BKN050CB OVC100
     FM160100 04003KT P6SM SCT040 BKN150=



000
FTUS44 KJAN 142300 RRA
TAFGLH
TAF
KGLH 142344Z 1500/1524 02006KT P6SM SCT250
     FM151000 02005KT 6SM BR SCT030 BKN250
     FM151400 01007KT P6SM SCT040 SCT120 BKN250=



000
FTUS44 KJAN 142300 RRA
TAFHBG
TAF
KHBG 142344Z 1500/1524 04003KT P6SM VCSH SCT030 BKN050
     FM150200 VRB03KT P6SM SCT050 SCT250
     FM151000 VRB03KT 2SM BR BKN009 BKN250
     FM151400 05003KT P6SM FEW020 SCT040 BKN150
     FM151900 VRB06KT 6SM -SHRA VCTS SCT030 BKN050CB OVC100=



000
FTUS44 KJAN 142300 RRA
TAFMEI
TAF
KMEI 142344Z 1500/1524 02003KT P6SM FEW030 SCT250
     FM150900 VRB03KT 5SM BR SCT030 BKN250
     FM151400 04003KT P6SM SCT030 SCT100 BKN250
     FM151800 04005KT P6SM VCTS SCT030 BKN050CB BKN250=



000
FTUS44 KJAN 142300 RRA
TAFJAN
TAF
KJAN 142344Z 1500/1524 01005KT P6SM FEW030 SCT250
     FM151000 04003KT 6SM BR SCT030 BKN250
     FM151400 03004KT P6SM SCT030 SCT100 BKN250
     FM151800 01006KT P6SM VCTS SCT030 BKN050CB BKN250=



000
FTUS44 KJAN 142300 RRA
TAFGWO
TAF
KGWO 142344Z 1500/1524 03005KT P6SM SCT250
     FM151000 04003KT 6SM BR SCT030 BKN250
     FM151400 02005KT P6SM SCT040 SCT120 BKN250=



000
FTUS44 KJAN 141700
TAFMEI
TAF
KMEI 141721Z 1418/1518 04006KT P6SM SCT040
     FM151000 00000KT 4SM BR FEW250
     FM151400 05005KT P6SM FEW010=



000
FTUS44 KJAN 141700
TAFHBG
TAF
KHBG 141721Z 1418/1518 02006KT P6SM SCT040
     FM142100 03005KT P6SM VCTS BKN050CB
     FM150100 VRB03KT P6SM SKC
     FM151100 00000KT 4SM BR BKN005
     FM151400 07005KT P6SM FEW010=



000
FTUS44 KJAN 141700
TAFJAN
TAF
KJAN 141721Z 1418/1518 02006KT P6SM SCT030=



000
FTUS44 KJAN 141700
TAFGLH
TAF
KGLH 141721Z 1418/1518 02009KT P6SM SCT030=



000
FTUS44 KJAN 141700
TAFGWO
TAF
KGWO 141721Z 1418/1518 02009KT P6SM SCT030=



000
FTUS44 KJAN 141400 AAA
TAFJAN
TAF AMD
KJAN 141427Z 1414/1512 02006KT P6SM OVC017
     FM141600 02006KT P6SM SCT030=



000
FTUS44 KJAN 141100
TAFGWO
TAF
KGWO 141120Z 1412/1512 36003KT 6SM BR SKC
     FM141330 02009KT P6SM SCT030=



000
FTUS44 KJAN 141100
TAFHBG
TAF
KHBG 141120Z 1412/1512 35005KT P6SM SKC
     FM141400 02006KT P6SM SCT040
     FM142100 03005KT P6SM VCTS BKN050CB
     FM150100 VRB03KT P6SM SKC=



000
FTUS44 KJAN 141100
TAFMEI
TAF
KMEI 141120Z 1412/1512 01004KT P6SM SKC
     FM141400 04006KT P6SM SCT040=



000
FTUS44 KJAN 141100
TAFJAN
TAF
KJAN 141120Z 1412/1512 02006KT P6SM OVC020
     FM141400 02006KT P6SM SCT030=



000
FTUS44 KJAN 141100
TAFGLH
TAF
KGLH 141120Z 1412/1512 02004KT P6SM BKN015
     FM141300 02009KT P6SM SCT030=



000
FTUS44 KJAN 140500
TAFGWO
TAF
KGWO 140539Z 1406/1506 05007KT P6SM OVC017
     FM140900 02007KT P6SM FEW020=



000
FTUS44 KJAN 140500
TAFJAN
TAF
KJAN 140539Z 1406/1506 02005KT P6SM BKN012
     FM141100 02006KT P6SM FEW030=



000
FTUS44 KJAN 140500
TAFMEI
TAF
KMEI 140539Z 1406/1506 01004KT P6SM FEW012
     FM141000 01004KT 5SM BR SKC
     FM141400 04006KT P6SM SCT040=



000
FTUS44 KJAN 140500
TAFHBG
TAF
KHBG 140539Z 1406/1506 01004KT P6SM OVC017
     FM141000 01005KT 5SM BR SCT012
     FM141400 02006KT P6SM SCT040=



000
FTUS44 KJAN 140500
TAFGLH
TAF
KGLH 140539Z 1406/1506 05007KT P6SM OVC019
     FM141100 01010KT P6SM SCT030=



000
FTUS44 KJAN 140300 AAA
TAFGWO
TAF AMD
KGWO 140337Z 1404/1424 02006KT P6SM BKN016
     FM140700 02005KT P6SM FEW015 SCT250
     FM141600 02007KT P6SM FEW030 SCT250=



000
FTUS44 KJAN 132300
TAFJAN
TAF
KJAN 132339Z 1400/1424 01006KT P6SM BKN017 BKN100
     FM141600 02006KT P6SM FEW020 SCT050 BKN120=



000
FTUS44 KJAN 132300
TAFGWO
TAF
KGWO 132339Z 1400/1424 01006KT P6SM BKN025 BKN100
     FM141600 02007KT P6SM FEW030 SCT250=



000
FTUS44 KJAN 132300
TAFGLH
TAF
KGLH 132339Z 1400/1424 01010KT P6SM BKN025 BKN100
     FM141600 01010KT P6SM FEW030 SCT250=



000
FTUS44 KJAN 132300
TAFHBG
TAF
KHBG 132339Z 1400/1424 02006KT P6SM BKN015 BKN100
     FM141000 01005KT 5SM BR BKN009 BKN150
     FM141600 02006KT P6SM FEW020 SCT050 BKN120=



000
FTUS44 KJAN 132300
TAFMEI
TAF
KMEI 132339Z 1400/1424 36009KT P6SM BKN018 BKN100
     FM140400 01005KT P6SM SCT025 SCT150
     FM141000 01005KT 5SM BR BKN010 BKN150
     FM141600 02006KT P6SM FEW020 SCT050 BKN120=



000
FTUS44 KJAN 132100 AAA
TAFJAN
TAF AMD
KJAN 132120Z 1321/1418 01009KT P6SM BKN018
     FM132300 01009KT P6SM BKN020
     FM140400 02006KT P6SM SCT030 SCT100=



000
FTUS44 KJAN 132100 AAA
TAFHBG
TAF AMD
KHBG 132108Z 1321/1418 36010KT P6SM BKN015
     FM132230 01009KT P6SM FEW020
     FM140100 02007KT P6SM SCT035 BKN100=



000
FTUS44 KJAN 132100 AAA
TAFMEI
TAF AMD
KMEI 132106Z 1321/1418 01009KT P6SM BKN018
     FM132230 01008KT P6SM BKN025
     FM140300 01006KT P6SM SCT030 SCT100=



000
FTUS44 KJAN 131700
TAFJAN
TAF
KJAN 131720Z 1318/1418 01012KT P6SM OVC008
     FM131900 01012KT P6SM OVC015
     FM132100 01008KT P6SM OVC022
     FM140200 02006KT P6SM SCT030 SCT100=



000
FTUS44 KJAN 131700
TAFGWO
TAF
KGWO 131720Z 1318/1418 02012KT P6SM OVC015
     FM131900 02012KT P6SM OVC025
     FM132300 01011KT P6SM SCT030=



000
FTUS44 KJAN 131700
TAFHBG
TAF
KHBG 131720Z 1318/1418 02010KT P6SM OVC012
     FM132100 01008KT P6SM VCSH BKN030
     FM140100 02007KT P6SM SCT035 BKN100=



000
FTUS44 KJAN 131700
TAFGLH
TAF
KGLH 131720Z 1318/1418 02014KT P6SM BKN025
     FM132200 01015KT P6SM SCT030=



000
FTUS44 KJAN 131700
TAFMEI
TAF
KMEI 131720Z 1318/1418 01011KT P6SM VCSH OVC012
     FM131900 01012KT P6SM VCSH BKN025
     FM140300 01006KT P6SM SCT030 SCT100=



000
FTUS44 KJAN 131500 AAA
TAFHBG
TAF AMD
KHBG 131537Z 1316/1412 02010KT P6SM OVC012
     FM132100 01008KT P6SM VCTS BKN030CB
     FM140100 02007KT P6SM SCT035 BKN100=



000
FTUS44 KJAN 131500 AAA
TAFMEI
TAF AMD
KMEI 131533Z 1316/1412 01011KT P6SM OVC012
     FM132000 01012KT P6SM BKN025
     FM140300 01006KT P6SM SCT030 SCT100=



000
FTUS44 KJAN 131500 AAA
TAFJAN
TAF AMD
KJAN 131529Z 1315/1412 01012KT P6SM OVC008
     FM131800 01012KT P6SM OVC015
     FM132100 01008KT P6SM OVC022
     FM140200 02006KT P6SM SCT030 SCT100=



000
FTUS44 KJAN 131500 AAA
TAFGWO
TAF AMD
KGWO 131524Z 1315/1412 02012KT P6SM OVC015
     FM131900 02012KT P6SM OVC025
     FM132300 01011KT P6SM SCT030=



000
FTUS44 KJAN 131500 AAA
TAFGLH
TAF AMD
KGLH 131522Z 1315/1412 01011KT P6SM OVC015
     FM131800 02014KT P6SM BKN025
     FM132300 01015KT P6SM SCT030=



    US Dept of Commerce
    National Oceanic and Atmospheric Administration
    National Weather Service
    1325 East West Highway
    Silver Spring, MD 20910
    Page Author: NWS Internet Services Team
Disclaimer
Information Quality
Credits
Glossary
Privacy Policy
Freedom of Information Act (FOIA)
About Us
Career Opportunities